sensor_id;sensor_type;location;lat;lon;timestamp;temperature;humidity
11221;DHT22;8517;53.546;10.104;2023-07-13T00:02:18;20.10;99.90
11221;DHT22;8517;53.546;10.104;2023-07-13T00:04:45;20.10;99.90
11221;DHT22;8517;53.546;10.104;2023-07-13T00:07:11;20.10;99.90
11221;DHT22;8517;53.546;10.104;2023-07-13T00:09:41;20.10;99.90
11221;DHT22;8517;53.546;10.104;2023-07-13T00:12:24;20.10;99.90
11221;DHT22;8517;53.546;10.104;2023-07-13T00:14:51;20.10;99.90
11221;DHT22;8517;53.546;10.104;2023-07-13T00:17:17;20.10;99.90
11221;DHT22;8517;53.546;10.104;2023-07-13T00:19:44;20.10;99.90
11221;DHT22;8517;53.546;10.104;2023-07-13T00:22:11;20.00;99.90
11221;DHT22;8517;53.546;10.104;2023-07-13T00:24:38;20.00;99.90
11221;DHT22;8517;53.546;10.104;2023-07-13T00:27:08;20.00;99.90
11221;DHT22;8517;53.546;10.104;2023-07-13T00:29:35;20.00;99.90
11221;DHT22;8517;53.546;10.104;2023-07-13T00:32:03;19.90;99.90
11221;DHT22;8517;53.546;10.104;2023-07-13T00:34:29;19.90;99.90
11221;DHT22;8517;53.546;10.104;2023-07-13T00:36:56;19.90;99.90
11221;DHT22;8517;53.546;10.104;2023-07-13T00:39:23;19.90;99.90
11221;DHT22;8517;53.546;10.104;2023-07-13T00:41:51;19.80;99.90
11221;DHT22;8517;53.546;10.104;2023-07-13T00:44:20;19.80;99.90
11221;DHT22;8517;53.546;10.104;2023-07-13T00:46:49;19.70;99.90
11221;DHT22;8517;53.546;10.104;2023-07-13T00:49:20;19.70;99.90
11221;DHT22;8517;53.546;10.104;2023-07-13T00:51:49;19.70;99.90
11221;DHT22;8517;53.546;10.104;2023-07-13T00:54:19;19.70;99.90
11221;DHT22;8517;53.546;10.104;2023-07-13T00:56:50;19.60;99.90
11221;DHT22;8517;53.546;10.104;2023-07-13T00:59:20;19.60;99.90
11221;DHT22;8517;53.546;10.104;2023-07-13T01:01:48;19.60;99.90
11221;DHT22;8517;53.546;10.104;2023-07-13T01:04:17;19.60;99.90
11221;DHT22;8517;53.546;10.104;2023-07-13T01:06:44;19.50;99.90
11221;DHT22;8517;53.546;10.104;2023-07-13T01:09:13;19.50;99.90
11221;DHT22;8517;53.546;10.104;2023-07-13T01:11:40;19.50;99.90
11221;DHT22;8517;53.546;10.104;2023-07-13T01:14:07;19.50;99.90
11221;DHT22;8517;53.546;10.104;2023-07-13T01:16:37;19.40;99.90
11221;DHT22;8517;53.546;10.104;2023-07-13T01:19:12;19.40;99.90
11221;DHT22;8517;53.546;10.104;2023-07-13T01:21:42;19.40;99.90
11221;DHT22;8517;53.546;10.104;2023-07-13T01:24:09;19.30;99.90
11221;DHT22;8517;53.546;10.104;2023-07-13T01:26:36;19.30;99.90
11221;DHT22;8517;53.546;10.104;2023-07-13T01:29:02;19.30;99.90
11221;DHT22;8517;53.546;10.104;2023-07-13T01:31:29;19.30;99.90
11221;DHT22;8517;53.546;10.104;2023-07-13T01:33:56;19.30;99.90
11221;DHT22;8517;53.546;10.104;2023-07-13T01:36:23;19.20;99.90
11221;DHT22;8517;53.546;10.104;2023-07-13T01:38:51;19.20;99.90
11221;DHT22;8517;53.546;10.104;2023-07-13T01:41:18;19.10;99.90
11221;DHT22;8517;53.546;10.104;2023-07-13T01:43:45;19.10;99.90
11221;DHT22;8517;53.546;10.104;2023-07-13T01:46:12;19.10;99.90
11221;DHT22;8517;53.546;10.104;2023-07-13T01:48:38;19.10;99.90
11221;DHT22;8517;53.546;10.104;2023-07-13T01:51:05;19.10;99.90
11221;DHT22;8517;53.546;10.104;2023-07-13T01:53:32;19.10;99.90
11221;DHT22;8517;53.546;10.104;2023-07-13T01:56:00;19.00;99.90
11221;DHT22;8517;53.546;10.104;2023-07-13T01:58:27;19.00;99.90
11221;DHT22;8517;53.546;10.104;2023-07-13T02:00:54;19.00;99.90
11221;DHT22;8517;53.546;10.104;2023-07-13T02:03:20;19.00;99.90
11221;DHT22;8517;53.546;10.104;2023-07-13T02:05:47;19.00;99.90
11221;DHT22;8517;53.546;10.104;2023-07-13T02:08:14;19.00;99.90
11221;DHT22;8517;53.546;10.104;2023-07-13T02:10:41;19.00;99.90
11221;DHT22;8517;53.546;10.104;2023-07-13T02:13:09;19.00;99.90
11221;DHT22;8517;53.546;10.104;2023-07-13T02:15:38;19.00;99.90
11221;DHT22;8517;53.546;10.104;2023-07-13T02:18:05;19.00;99.90
11221;DHT22;8517;53.546;10.104;2023-07-13T02:20:32;18.90;99.90
11221;DHT22;8517;53.546;10.104;2023-07-13T02:22:59;18.90;99.90
11221;DHT22;8517;53.546;10.104;2023-07-13T02:25:26;18.90;99.90
11221;DHT22;8517;53.546;10.104;2023-07-13T02:27:52;18.90;99.90
11221;DHT22;8517;53.546;10.104;2023-07-13T02:30:20;18.90;99.90
11221;DHT22;8517;53.546;10.104;2023-07-13T02:32:50;18.90;99.90
11221;DHT22;8517;53.546;10.104;2023-07-13T02:35:16;18.90;99.90
11221;DHT22;8517;53.546;10.104;2023-07-13T02:37:43;18.80;99.90
11221;DHT22;8517;53.546;10.104;2023-07-13T02:40:10;18.80;99.90
11221;DHT22;8517;53.546;10.104;2023-07-13T02:42:37;18.80;99.90
11221;DHT22;8517;53.546;10.104;2023-07-13T02:45:05;18.80;99.90
11221;DHT22;8517;53.546;10.104;2023-07-13T02:47:33;18.80;99.90
11221;DHT22;8517;53.546;10.104;2023-07-13T02:50:00;18.70;99.90
11221;DHT22;8517;53.546;10.104;2023-07-13T02:52:27;18.70;99.90
11221;DHT22;8517;53.546;10.104;2023-07-13T02:54:54;18.70;99.90
11221;DHT22;8517;53.546;10.104;2023-07-13T02:57:21;18.70;99.90
11221;DHT22;8517;53.546;10.104;2023-07-13T02:59:47;18.70;99.90
11221;DHT22;8517;53.546;10.104;2023-07-13T03:02:15;18.60;99.90
11221;DHT22;8517;53.546;10.104;2023-07-13T03:04:43;18.60;99.90
11221;DHT22;8517;53.546;10.104;2023-07-13T03:07:10;18.60;99.90
11221;DHT22;8517;53.546;10.104;2023-07-13T03:09:37;18.60;99.90
11221;DHT22;8517;53.546;10.104;2023-07-13T03:12:04;18.50;99.90
11221;DHT22;8517;53.546;10.104;2023-07-13T03:14:31;18.50;99.90
11221;DHT22;8517;53.546;10.104;2023-07-13T03:16:58;18.50;99.90
11221;DHT22;8517;53.546;10.104;2023-07-13T03:19:25;18.50;99.90
11221;DHT22;8517;53.546;10.104;2023-07-13T03:21:53;18.50;99.90
11221;DHT22;8517;53.546;10.104;2023-07-13T03:24:20;18.50;99.90
11221;DHT22;8517;53.546;10.104;2023-07-13T03:26:48;18.50;99.90
11221;DHT22;8517;53.546;10.104;2023-07-13T03:29:15;18.50;99.90
11221;DHT22;8517;53.546;10.104;2023-07-13T03:31:42;18.50;99.90
11221;DHT22;8517;53.546;10.104;2023-07-13T03:34:09;18.50;99.90
11221;DHT22;8517;53.546;10.104;2023-07-13T03:36:35;18.50;99.90
11221;DHT22;8517;53.546;10.104;2023-07-13T03:39:04;18.50;99.90
11221;DHT22;8517;53.546;10.104;2023-07-13T03:41:34;18.50;99.90
11221;DHT22;8517;53.546;10.104;2023-07-13T03:44:00;18.50;99.90
11221;DHT22;8517;53.546;10.104;2023-07-13T03:46:27;18.50;99.90
11221;DHT22;8517;53.546;10.104;2023-07-13T03:48:54;18.50;99.90
11221;DHT22;8517;53.546;10.104;2023-07-13T03:51:21;18.60;99.90
11221;DHT22;8517;53.546;10.104;2023-07-13T03:53:48;18.50;99.90
11221;DHT22;8517;53.546;10.104;2023-07-13T03:56:17;18.50;99.90
11221;DHT22;8517;53.546;10.104;2023-07-13T03:58:46;18.50;99.90
11221;DHT22;8517;53.546;10.104;2023-07-13T04:01:14;18.60;99.90
11221;DHT22;8517;53.546;10.104;2023-07-13T04:03:41;18.50;99.90
11221;DHT22;8517;53.546;10.104;2023-07-13T04:06:14;18.50;99.90
11221;DHT22;8517;53.546;10.104;2023-07-13T04:08:48;18.50;99.90
11221;DHT22;8517;53.546;10.104;2023-07-13T04:11:17;18.50;99.90
11221;DHT22;8517;53.546;10.104;2023-07-13T04:13:44;18.50;99.90
11221;DHT22;8517;53.546;10.104;2023-07-13T04:16:11;18.50;99.90
11221;DHT22;8517;53.546;10.104;2023-07-13T04:18:38;18.50;99.90
11221;DHT22;8517;53.546;10.104;2023-07-13T04:21:05;18.60;99.90
11221;DHT22;8517;53.546;10.104;2023-07-13T04:23:32;18.50;99.90
11221;DHT22;8517;53.546;10.104;2023-07-13T04:25:59;18.60;99.90
11221;DHT22;8517;53.546;10.104;2023-07-13T04:28:27;18.60;99.90
11221;DHT22;8517;53.546;10.104;2023-07-13T04:30:54;18.60;99.90
11221;DHT22;8517;53.546;10.104;2023-07-13T04:33:21;18.60;99.90
11221;DHT22;8517;53.546;10.104;2023-07-13T04:35:48;18.70;99.90
11221;DHT22;8517;53.546;10.104;2023-07-13T04:38:15;18.70;99.90
11221;DHT22;8517;53.546;10.104;2023-07-13T04:40:44;18.70;99.90
11221;DHT22;8517;53.546;10.104;2023-07-13T04:43:11;18.70;99.90
11221;DHT22;8517;53.546;10.104;2023-07-13T04:45:39;18.70;99.90
11221;DHT22;8517;53.546;10.104;2023-07-13T04:48:06;18.70;99.90
11221;DHT22;8517;53.546;10.104;2023-07-13T04:50:33;18.80;99.90
11221;DHT22;8517;53.546;10.104;2023-07-13T04:53:02;18.90;99.90
11221;DHT22;8517;53.546;10.104;2023-07-13T04:55:30;18.90;99.90
11221;DHT22;8517;53.546;10.104;2023-07-13T04:57:57;18.90;99.90
11221;DHT22;8517;53.546;10.104;2023-07-13T05:00:25;19.00;99.90
11221;DHT22;8517;53.546;10.104;2023-07-13T05:02:54;19.10;99.90
11221;DHT22;8517;53.546;10.104;2023-07-13T05:05:21;19.20;99.90
11221;DHT22;8517;53.546;10.104;2023-07-13T05:07:48;19.20;99.90
11221;DHT22;8517;53.546;10.104;2023-07-13T05:10:15;19.30;99.90
11221;DHT22;8517;53.546;10.104;2023-07-13T05:12:42;19.40;99.90
11221;DHT22;8517;53.546;10.104;2023-07-13T05:15:10;19.40;99.90
11221;DHT22;8517;53.546;10.104;2023-07-13T05:17:37;19.50;99.90
11221;DHT22;8517;53.546;10.104;2023-07-13T05:20:07;19.60;99.90
11221;DHT22;8517;53.546;10.104;2023-07-13T05:22:34;19.70;99.90
11221;DHT22;8517;53.546;10.104;2023-07-13T05:25:04;19.70;99.90
11221;DHT22;8517;53.546;10.104;2023-07-13T05:27:32;19.80;99.90
11221;DHT22;8517;53.546;10.104;2023-07-13T05:29:58;19.90;99.90
11221;DHT22;8517;53.546;10.104;2023-07-13T05:32:25;20.00;99.90
11221;DHT22;8517;53.546;10.104;2023-07-13T05:34:52;20.10;99.90
11221;DHT22;8517;53.546;10.104;2023-07-13T05:37:20;20.20;99.90
11221;DHT22;8517;53.546;10.104;2023-07-13T05:39:47;20.40;99.90
11221;DHT22;8517;53.546;10.104;2023-07-13T05:42:14;20.50;99.90
11221;DHT22;8517;53.546;10.104;2023-07-13T05:44:41;20.60;99.90
11221;DHT22;8517;53.546;10.104;2023-07-13T05:47:08;20.70;99.90
11221;DHT22;8517;53.546;10.104;2023-07-13T05:49:35;20.80;99.90
11221;DHT22;8517;53.546;10.104;2023-07-13T05:52:02;20.80;99.90
11221;DHT22;8517;53.546;10.104;2023-07-13T05:54:30;20.90;99.90
11221;DHT22;8517;53.546;10.104;2023-07-13T05:56:56;20.80;99.90
11221;DHT22;8517;53.546;10.104;2023-07-13T05:59:23;20.80;99.90
11221;DHT22;8517;53.546;10.104;2023-07-13T06:01:51;20.80;99.90
11221;DHT22;8517;53.546;10.104;2023-07-13T06:04:18;20.80;99.90
11221;DHT22;8517;53.546;10.104;2023-07-13T06:06:45;20.80;99.90
11221;DHT22;8517;53.546;10.104;2023-07-13T06:09:12;20.80;99.90
11221;DHT22;8517;53.546;10.104;2023-07-13T06:11:40;20.80;99.90
11221;DHT22;8517;53.546;10.104;2023-07-13T06:14:07;20.80;99.90
11221;DHT22;8517;53.546;10.104;2023-07-13T06:16:34;20.80;99.90
11221;DHT22;8517;53.546;10.104;2023-07-13T06:19:01;20.90;99.90
11221;DHT22;8517;53.546;10.104;2023-07-13T06:21:27;20.90;99.90
11221;DHT22;8517;53.546;10.104;2023-07-13T06:23:55;21.00;99.90
11221;DHT22;8517;53.546;10.104;2023-07-13T06:26:21;21.00;99.90
11221;DHT22;8517;53.546;10.104;2023-07-13T06:28:50;21.00;99.90
11221;DHT22;8517;53.546;10.104;2023-07-13T06:31:16;21.10;99.90
11221;DHT22;8517;53.546;10.104;2023-07-13T06:33:43;21.10;99.90
11221;DHT22;8517;53.546;10.104;2023-07-13T06:36:10;21.20;99.90
11221;DHT22;8517;53.546;10.104;2023-07-13T06:38:38;21.20;99.90
11221;DHT22;8517;53.546;10.104;2023-07-13T06:41:06;21.30;99.90
11221;DHT22;8517;53.546;10.104;2023-07-13T06:43:33;21.30;99.90
11221;DHT22;8517;53.546;10.104;2023-07-13T06:46:01;21.20;99.90
11221;DHT22;8517;53.546;10.104;2023-07-13T06:48:28;21.20;99.90
11221;DHT22;8517;53.546;10.104;2023-07-13T06:50:55;21.20;99.90
11221;DHT22;8517;53.546;10.104;2023-07-13T06:53:22;21.10;99.90
11221;DHT22;8517;53.546;10.104;2023-07-13T06:55:49;21.20;99.90
11221;DHT22;8517;53.546;10.104;2023-07-13T06:58:17;21.20;99.90
11221;DHT22;8517;53.546;10.104;2023-07-13T07:00:45;21.20;99.90
11221;DHT22;8517;53.546;10.104;2023-07-13T07:03:13;21.20;99.90
11221;DHT22;8517;53.546;10.104;2023-07-13T07:05:40;21.20;99.90
11221;DHT22;8517;53.546;10.104;2023-07-13T07:08:07;21.20;99.90
11221;DHT22;8517;53.546;10.104;2023-07-13T07:10:34;21.20;99.90
11221;DHT22;8517;53.546;10.104;2023-07-13T07:13:02;21.20;99.90
11221;DHT22;8517;53.546;10.104;2023-07-13T07:15:29;21.20;99.90
11221;DHT22;8517;53.546;10.104;2023-07-13T07:17:56;21.20;99.90
11221;DHT22;8517;53.546;10.104;2023-07-13T07:20:24;21.30;99.90
11221;DHT22;8517;53.546;10.104;2023-07-13T07:22:51;21.40;99.90
11221;DHT22;8517;53.546;10.104;2023-07-13T07:25:19;21.50;99.90
11221;DHT22;8517;53.546;10.104;2023-07-13T07:27:46;21.60;99.90
11221;DHT22;8517;53.546;10.104;2023-07-13T07:30:13;21.70;99.90
11221;DHT22;8517;53.546;10.104;2023-07-13T07:32:40;21.80;99.90
11221;DHT22;8517;53.546;10.104;2023-07-13T07:35:08;22.10;99.90
11221;DHT22;8517;53.546;10.104;2023-07-13T07:37:36;22.30;99.90
11221;DHT22;8517;53.546;10.104;2023-07-13T07:40:04;22.70;99.90
11221;DHT22;8517;53.546;10.104;2023-07-13T07:42:31;23.00;99.90
11221;DHT22;8517;53.546;10.104;2023-07-13T07:44:57;23.20;99.90
11221;DHT22;8517;53.546;10.104;2023-07-13T07:47:26;23.40;99.90
11221;DHT22;8517;53.546;10.104;2023-07-13T07:49:53;23.60;99.90
11221;DHT22;8517;53.546;10.104;2023-07-13T07:52:19;23.70;99.90
11221;DHT22;8517;53.546;10.104;2023-07-13T07:54:47;23.90;99.90
11221;DHT22;8517;53.546;10.104;2023-07-13T07:57:14;24.00;99.90
11221;DHT22;8517;53.546;10.104;2023-07-13T07:59:41;24.20;99.90
11221;DHT22;8517;53.546;10.104;2023-07-13T08:02:10;24.40;99.90
11221;DHT22;8517;53.546;10.104;2023-07-13T08:04:37;24.50;99.90
11221;DHT22;8517;53.546;10.104;2023-07-13T08:07:05;24.70;99.90
11221;DHT22;8517;53.546;10.104;2023-07-13T08:09:32;24.70;99.90
11221;DHT22;8517;53.546;10.104;2023-07-13T08:12:00;24.70;99.90
11221;DHT22;8517;53.546;10.104;2023-07-13T08:14:27;24.80;99.90
11221;DHT22;8517;53.546;10.104;2023-07-13T08:16:54;24.70;99.90
11221;DHT22;8517;53.546;10.104;2023-07-13T08:19:20;24.70;99.90
11221;DHT22;8517;53.546;10.104;2023-07-13T08:21:47;24.70;99.90
11221;DHT22;8517;53.546;10.104;2023-07-13T08:24:15;24.70;99.90
11221;DHT22;8517;53.546;10.104;2023-07-13T08:26:44;24.70;99.90
11221;DHT22;8517;53.546;10.104;2023-07-13T08:29:12;24.70;99.90
11221;DHT22;8517;53.546;10.104;2023-07-13T08:31:39;24.70;99.90
11221;DHT22;8517;53.546;10.104;2023-07-13T08:34:05;24.70;99.90
11221;DHT22;8517;53.546;10.104;2023-07-13T08:36:32;24.60;99.90
11221;DHT22;8517;53.546;10.104;2023-07-13T08:38:59;24.60;99.90
11221;DHT22;8517;53.546;10.104;2023-07-13T08:41:26;24.70;99.90
11221;DHT22;8517;53.546;10.104;2023-07-13T08:43:57;24.70;99.90
11221;DHT22;8517;53.546;10.104;2023-07-13T08:46:37;24.90;99.90
11221;DHT22;8517;53.546;10.104;2023-07-13T08:49:10;25.10;99.90
11221;DHT22;8517;53.546;10.104;2023-07-13T08:51:41;25.30;99.90
11221;DHT22;8517;53.546;10.104;2023-07-13T08:54:18;25.40;99.90
11221;DHT22;8517;53.546;10.104;2023-07-13T08:56:46;25.50;99.90
11221;DHT22;8517;53.546;10.104;2023-07-13T08:59:15;25.60;99.90
11221;DHT22;8517;53.546;10.104;2023-07-13T09:01:54;25.60;99.90
11221;DHT22;8517;53.546;10.104;2023-07-13T09:04:28;25.80;99.90
11221;DHT22;8517;53.546;10.104;2023-07-13T09:07:02;26.00;99.90
11221;DHT22;8517;53.546;10.104;2023-07-13T09:09:44;26.10;99.90
11221;DHT22;8517;53.546;10.104;2023-07-13T09:12:19;26.20;99.90
11221;DHT22;8517;53.546;10.104;2023-07-13T09:14:53;26.40;99.90
11221;DHT22;8517;53.546;10.104;2023-07-13T09:17:25;26.40;99.90
11221;DHT22;8517;53.546;10.104;2023-07-13T09:19:58;26.20;99.90
11221;DHT22;8517;53.546;10.104;2023-07-13T09:22:40;26.00;99.90
11221;DHT22;8517;53.546;10.104;2023-07-13T09:25:23;25.80;99.90
11221;DHT22;8517;53.546;10.104;2023-07-13T09:27:54;25.60;99.90
11221;DHT22;8517;53.546;10.104;2023-07-13T09:30:36;25.50;99.90
11221;DHT22;8517;53.546;10.104;2023-07-13T09:33:07;25.40;99.90
11221;DHT22;8517;53.546;10.104;2023-07-13T09:35:35;25.40;99.90
11221;DHT22;8517;53.546;10.104;2023-07-13T09:38:11;25.40;99.90
11221;DHT22;8517;53.546;10.104;2023-07-13T09:40:52;25.40;99.90
11221;DHT22;8517;53.546;10.104;2023-07-13T09:43:20;25.20;99.90
11221;DHT22;8517;53.546;10.104;2023-07-13T09:45:48;25.20;99.90
11221;DHT22;8517;53.546;10.104;2023-07-13T09:48:17;25.00;99.90
11221;DHT22;8517;53.546;10.104;2023-07-13T09:50:45;24.90;99.90
11221;DHT22;8517;53.546;10.104;2023-07-13T09:53:13;25.00;99.90
11221;DHT22;8517;53.546;10.104;2023-07-13T09:55:42;25.00;99.90
11221;DHT22;8517;53.546;10.104;2023-07-13T09:58:12;25.10;99.90
11221;DHT22;8517;53.546;10.104;2023-07-13T10:00:40;25.20;99.90
11221;DHT22;8517;53.546;10.104;2023-07-13T10:03:20;25.30;99.90
11221;DHT22;8517;53.546;10.104;2023-07-13T10:05:49;25.30;99.90
11221;DHT22;8517;53.546;10.104;2023-07-13T10:08:26;25.50;99.90
11221;DHT22;8517;53.546;10.104;2023-07-13T10:10:59;25.50;99.90
11221;DHT22;8517;53.546;10.104;2023-07-13T10:13:30;25.60;99.90
11221;DHT22;8517;53.546;10.104;2023-07-13T10:15:58;25.50;99.90
11221;DHT22;8517;53.546;10.104;2023-07-13T10:18:29;25.50;99.90
11221;DHT22;8517;53.546;10.104;2023-07-13T10:21:11;25.50;99.90
11221;DHT22;8517;53.546;10.104;2023-07-13T10:23:39;25.50;99.90
11221;DHT22;8517;53.546;10.104;2023-07-13T10:26:13;25.70;99.90
11221;DHT22;8517;53.546;10.104;2023-07-13T10:28:42;26.00;99.90
11221;DHT22;8517;53.546;10.104;2023-07-13T10:31:15;26.20;99.90
11221;DHT22;8517;53.546;10.104;2023-07-13T10:33:44;26.40;99.90
11221;DHT22;8517;53.546;10.104;2023-07-13T10:36:16;26.60;99.90
11221;DHT22;8517;53.546;10.104;2023-07-13T10:38:46;26.80;99.90
11221;DHT22;8517;53.546;10.104;2023-07-13T10:41:17;26.90;99.90
11221;DHT22;8517;53.546;10.104;2023-07-13T10:43:47;26.90;99.90
11221;DHT22;8517;53.546;10.104;2023-07-13T10:46:18;26.90;99.90
11221;DHT22;8517;53.546;10.104;2023-07-13T10:48:49;26.80;99.90
11221;DHT22;8517;53.546;10.104;2023-07-13T10:51:18;26.70;99.90
11221;DHT22;8517;53.546;10.104;2023-07-13T10:53:48;26.70;99.90
11221;DHT22;8517;53.546;10.104;2023-07-13T10:56:35;26.70;99.90
11221;DHT22;8517;53.546;10.104;2023-07-13T10:59:11;26.70;99.90
11221;DHT22;8517;53.546;10.104;2023-07-13T11:01:49;26.80;99.90
11221;DHT22;8517;53.546;10.104;2023-07-13T11:04:19;26.80;99.90
11221;DHT22;8517;53.546;10.104;2023-07-13T11:06:50;26.80;99.90
11221;DHT22;8517;53.546;10.104;2023-07-13T11:09:31;26.70;99.90
11221;DHT22;8517;53.546;10.104;2023-07-13T11:11:59;26.60;99.90
11221;DHT22;8517;53.546;10.104;2023-07-13T11:14:29;26.50;99.90
11221;DHT22;8517;53.546;10.104;2023-07-13T11:16:57;26.40;99.90
11221;DHT22;8517;53.546;10.104;2023-07-13T11:19:40;26.30;99.90
11221;DHT22;8517;53.546;10.104;2023-07-13T11:22:16;26.20;99.90
11221;DHT22;8517;53.546;10.104;2023-07-13T11:25:01;26.10;99.90
11221;DHT22;8517;53.546;10.104;2023-07-13T11:27:36;26.10;99.90
11221;DHT22;8517;53.546;10.104;2023-07-13T11:30:25;26.10;99.90
11221;DHT22;8517;53.546;10.104;2023-07-13T11:33:03;26.10;99.90
11221;DHT22;8517;53.546;10.104;2023-07-13T11:35:35;26.10;99.90
11221;DHT22;8517;53.546;10.104;2023-07-13T11:38:13;26.10;99.90
11221;DHT22;8517;53.546;10.104;2023-07-13T11:40:42;26.10;99.90
11221;DHT22;8517;53.546;10.104;2023-07-13T11:43:13;26.00;99.90
11221;DHT22;8517;53.546;10.104;2023-07-13T11:45:40;26.00;99.90
11221;DHT22;8517;53.546;10.104;2023-07-13T11:48:22;25.90;99.90
11221;DHT22;8517;53.546;10.104;2023-07-13T11:50:55;25.80;99.90
11221;DHT22;8517;53.546;10.104;2023-07-13T11:53:26;25.80;99.90
11221;DHT22;8517;53.546;10.104;2023-07-13T11:55:55;25.70;99.90
11221;DHT22;8517;53.546;10.104;2023-07-13T11:58:25;25.70;99.90
11221;DHT22;8517;53.546;10.104;2023-07-13T12:00:55;25.80;99.90
11221;DHT22;8517;53.546;10.104;2023-07-13T12:03:25;25.80;99.90
11221;DHT22;8517;53.546;10.104;2023-07-13T12:05:58;25.80;99.90
11221;DHT22;8517;53.546;10.104;2023-07-13T12:08:25;25.80;99.90
11221;DHT22;8517;53.546;10.104;2023-07-13T12:11:00;25.80;99.90
11221;DHT22;8517;53.546;10.104;2023-07-13T12:13:36;25.90;99.90
11221;DHT22;8517;53.546;10.104;2023-07-13T12:16:12;25.90;99.90
11221;DHT22;8517;53.546;10.104;2023-07-13T12:18:39;26.00;99.90
11221;DHT22;8517;53.546;10.104;2023-07-13T12:21:16;26.00;99.90
11221;DHT22;8517;53.546;10.104;2023-07-13T12:23:45;26.00;99.90
11221;DHT22;8517;53.546;10.104;2023-07-13T12:26:15;26.00;99.90
11221;DHT22;8517;53.546;10.104;2023-07-13T12:28:46;26.00;99.90
11221;DHT22;8517;53.546;10.104;2023-07-13T12:31:26;25.90;99.90
11221;DHT22;8517;53.546;10.104;2023-07-13T12:33:57;25.70;99.90
11221;DHT22;8517;53.546;10.104;2023-07-13T12:36:26;25.30;99.90
11221;DHT22;8517;53.546;10.104;2023-07-13T12:39:04;24.70;99.90
11221;DHT22;8517;53.546;10.104;2023-07-13T12:41:34;23.70;99.90
11221;DHT22;8517;53.546;10.104;2023-07-13T12:44:00;23.20;99.90
11221;DHT22;8517;53.546;10.104;2023-07-13T12:46:27;22.60;99.90
11221;DHT22;8517;53.546;10.104;2023-07-13T12:48:57;22.10;99.90
11221;DHT22;8517;53.546;10.104;2023-07-13T12:51:27;21.70;99.90
11221;DHT22;8517;53.546;10.104;2023-07-13T12:53:57;21.40;99.90
11221;DHT22;8517;53.546;10.104;2023-07-13T13:00:28;21.10;99.90
11221;DHT22;8517;53.546;10.104;2023-07-13T13:03:02;21.10;99.90
11221;DHT22;8517;53.546;10.104;2023-07-13T13:05:32;21.10;99.90
11221;DHT22;8517;53.546;10.104;2023-07-13T13:08:02;21.00;99.90
11221;DHT22;8517;53.546;10.104;2023-07-13T13:10:32;21.00;99.90
11221;DHT22;8517;53.546;10.104;2023-07-13T13:13:01;21.00;99.90
11221;DHT22;8517;53.546;10.104;2023-07-13T13:15:55;21.00;99.90
11221;DHT22;8517;53.546;10.104;2023-07-13T13:18:36;21.00;99.90
11221;DHT22;8517;53.546;10.104;2023-07-13T13:21:03;20.90;99.90
11221;DHT22;8517;53.546;10.104;2023-07-13T13:23:31;20.90;99.90
11221;DHT22;8517;53.546;10.104;2023-07-13T13:25:58;20.80;99.90
11221;DHT22;8517;53.546;10.104;2023-07-13T13:28:31;20.80;99.90
11221;DHT22;8517;53.546;10.104;2023-07-13T13:31:00;20.70;99.90
11221;DHT22;8517;53.546;10.104;2023-07-13T13:33:28;20.70;99.90
11221;DHT22;8517;53.546;10.104;2023-07-13T13:35:56;20.80;99.90
11221;DHT22;8517;53.546;10.104;2023-07-13T13:38:26;20.80;99.90
11221;DHT22;8517;53.546;10.104;2023-07-13T13:40:55;20.90;99.90
11221;DHT22;8517;53.546;10.104;2023-07-13T13:43:23;20.90;99.90
11221;DHT22;8517;53.546;10.104;2023-07-13T13:45:53;21.00;99.90
11221;DHT22;8517;53.546;10.104;2023-07-13T13:48:28;21.10;99.90
11221;DHT22;8517;53.546;10.104;2023-07-13T13:50:56;21.20;99.90
11221;DHT22;8517;53.546;10.104;2023-07-13T13:53:24;21.30;99.90
11221;DHT22;8517;53.546;10.104;2023-07-13T13:55:51;21.40;99.90
11221;DHT22;8517;53.546;10.104;2023-07-13T13:58:19;21.40;99.90
11221;DHT22;8517;53.546;10.104;2023-07-13T14:00:49;21.50;99.90
11221;DHT22;8517;53.546;10.104;2023-07-13T14:03:17;21.60;99.90
11221;DHT22;8517;53.546;10.104;2023-07-13T14:05:45;21.60;99.90
11221;DHT22;8517;53.546;10.104;2023-07-13T14:08:14;21.70;99.90
11221;DHT22;8517;53.546;10.104;2023-07-13T14:10:41;21.60;99.90
11221;DHT22;8517;53.546;10.104;2023-07-13T14:13:16;21.70;99.90
11221;DHT22;8517;53.546;10.104;2023-07-13T14:15:45;21.60;99.90
11221;DHT22;8517;53.546;10.104;2023-07-13T14:18:13;21.60;99.90
11221;DHT22;8517;53.546;10.104;2023-07-13T14:20:43;21.50;99.90
11221;DHT22;8517;53.546;10.104;2023-07-13T14:23:11;21.50;99.90
11221;DHT22;8517;53.546;10.104;2023-07-13T14:25:38;21.50;99.90
11221;DHT22;8517;53.546;10.104;2023-07-13T14:28:20;21.50;99.90
11221;DHT22;8517;53.546;10.104;2023-07-13T14:30:49;21.50;99.90
11221;DHT22;8517;53.546;10.104;2023-07-13T14:33:15;21.50;99.90
11221;DHT22;8517;53.546;10.104;2023-07-13T14:35:42;21.50;99.90
11221;DHT22;8517;53.546;10.104;2023-07-13T14:38:11;21.50;99.90
11221;DHT22;8517;53.546;10.104;2023-07-13T14:40:39;21.60;99.90
11221;DHT22;8517;53.546;10.104;2023-07-13T14:43:10;21.60;99.90
11221;DHT22;8517;53.546;10.104;2023-07-13T14:45:40;21.60;99.90
11221;DHT22;8517;53.546;10.104;2023-07-13T14:48:15;21.70;99.90
11221;DHT22;8517;53.546;10.104;2023-07-13T14:50:44;21.70;99.90
11221;DHT22;8517;53.546;10.104;2023-07-13T14:53:13;21.80;99.90
11221;DHT22;8517;53.546;10.104;2023-07-13T14:55:40;21.80;99.90
11221;DHT22;8517;53.546;10.104;2023-07-13T14:58:08;21.90;99.90
11221;DHT22;8517;53.546;10.104;2023-07-13T15:00:35;22.00;99.90
11221;DHT22;8517;53.546;10.104;2023-07-13T15:03:04;22.10;99.90
11221;DHT22;8517;53.546;10.104;2023-07-13T15:05:33;22.10;99.90
11221;DHT22;8517;53.546;10.104;2023-07-13T15:08:02;22.20;99.90
11221;DHT22;8517;53.546;10.104;2023-07-13T15:10:30;22.20;99.90
11221;DHT22;8517;53.546;10.104;2023-07-13T15:12:59;22.20;99.90
11221;DHT22;8517;53.546;10.104;2023-07-13T15:15:28;22.20;99.90
11221;DHT22;8517;53.546;10.104;2023-07-13T15:17:56;22.20;99.90
11221;DHT22;8517;53.546;10.104;2023-07-13T15:20:26;22.30;99.90
11221;DHT22;8517;53.546;10.104;2023-07-13T15:22:56;22.30;99.90
11221;DHT22;8517;53.546;10.104;2023-07-13T15:25:24;22.30;99.90
11221;DHT22;8517;53.546;10.104;2023-07-13T15:27:52;22.50;99.90
11221;DHT22;8517;53.546;10.104;2023-07-13T15:30:19;22.60;99.90
11221;DHT22;8517;53.546;10.104;2023-07-13T15:32:46;22.70;99.90
11221;DHT22;8517;53.546;10.104;2023-07-13T15:35:15;22.80;99.90
11221;DHT22;8517;53.546;10.104;2023-07-13T15:37:42;22.80;99.90
11221;DHT22;8517;53.546;10.104;2023-07-13T15:40:12;22.80;99.90
11221;DHT22;8517;53.546;10.104;2023-07-13T15:42:40;22.80;99.90
11221;DHT22;8517;53.546;10.104;2023-07-13T15:45:16;22.80;99.90
11221;DHT22;8517;53.546;10.104;2023-07-13T15:47:43;22.80;99.90